Time;durP1;ratioP1;P1;durP2;ratioP2;P2;SDS_P1;SDS_P2;PMS_P1;PMS_P2;Temp;Humidity;BMP_temperature;BMP_pressure;BME280_temperature;BME280_humidity;BME280_pressure;Samples;Min_cycle;Max_cycle;Signal;HPM_P1;HPM_P2
2023/06/25 04:43:21;;;;;;;;;;;;;;;17.85;64.32;100138.09;1083675;54;19946;-78
2023/06/25 04:44:24;;;;;;;;;;;;;;;17.88;64.17;100135.84;1083837;47;19975;-77
2023/06/25 04:45:27;;;;;;;;;;;;;;;17.89;64.44;100134.81;1083633;47;19954;-77
2023/06/25 04:46:29;;;;;;;;;;;;;;;17.88;64.55;100130.44;1083098;47;19958;-76
2023/06/25 04:47:32;;;;;;;;;;;;;;;17.92;64.34;100139.88;1083002;47;19947;-79
2023/06/25 04:48:35;;;;;;;;;;;;;;;17.96;63.87;100136.75;1083160;54;19946;-77
2023/06/25 04:49:39;;;;;;;;;;;;;;;17.96;64.08;100136.75;1083236;47;20089;-77
2023/06/25 04:50:40;;;;;;;;;;;;;;;17.98;64.12;100142.84;1083383;54;19947;-76
2023/06/25 04:51:47;;;;;;;;;;;;;;;18.05;63.74;100146.47;1083891;47;19953;-76
2023/06/25 04:52:47;;;;;;;;;;;;;;;18.09;63.42;100139.66;1083023;54;20746;-76
2023/06/25 04:53:51;;;;;;;;;;;;;;;18.15;63.15;100149.69;1083229;54;19958;-77
2023/06/25 04:54:51;;;;;;;;;;;;;;;18.22;62.92;100141.66;1083188;54;19947;-77
2023/06/25 04:55:55;;;;;;;;;;;;;;;18.27;63.14;100141.94;1082920;54;20509;-77
2023/06/25 04:56:55;;;;;;;;;;;;;;;18.31;63.04;100136.97;1083265;47;19946;-76
2023/06/25 04:57:59;;;;;;;;;;;;;;;18.35;62.79;100135.53;1083424;54;20058;-77
2023/06/25 04:59:03;;;;;;;;;;;;;;;18.39;62.88;100134.13;1083234;54;19947;-76
2023/06/25 05:00:07;;;;;;;;;;;;;;;18.47;62.38;100138.53;1083368;54;19952;-76
2023/06/25 05:01:08;;;;;;;;;;;;;;;18.54;62.03;100136.75;1083180;54;20065;-76
2023/06/25 05:02:11;;;;;;;;;;;;;;;18.51;62.28;100139.84;1083139;54;19954;-77
2023/06/25 05:03:12;;;;;;;;;;;;;;;18.60;61.95;100140.56;1083443;54;19990;-77
2023/06/25 05:04:16;;;;;;;;;;;;;;;18.66;61.59;100142.47;1083161;54;20607;-78
2023/06/25 05:05:16;;;;;;;;;;;;;;;18.61;62.06;100143.06;1082860;54;19971;-76
2023/06/25 05:06:20;;;;;;;;;;;;;;;18.66;61.92;100137.88;1083488;54;20002;-76
2023/06/25 05:07:20;;;;;;;;;;;;;;;18.69;61.47;100134.78;1082949;54;19946;-76
2023/06/25 05:08:24;;;;;;;;;;;;;;;18.76;61.50;100140.25;1083238;54;20038;-76
2023/06/25 05:09:24;;;;;;;;;;;;;;;18.83;61.16;100149.25;1083380;54;19962;-77
2023/06/25 05:10:28;;;;;;;;;;;;;;;18.88;61.03;100134.31;1084751;31;20572;-76
2023/06/25 05:11:28;;;;;;;;;;;;;;;18.91;60.84;100145.59;1083221;47;19972;-76
2023/06/25 05:12:32;;;;;;;;;;;;;;;18.97;60.49;100144.00;1083855;31;20540;-77
2023/06/25 05:13:35;;;;;;;;;;;;;;;19.01;60.45;100142.53;1083339;54;19946;-76
2023/06/25 05:14:41;;;;;;;;;;;;;;;19.07;60.28;100135.50;1083143;54;19996;-78
2023/06/25 05:15:42;;;;;;;;;;;;;;;19.02;60.33;100142.38;1083492;54;20780;-76
2023/06/25 05:16:45;;;;;;;;;;;;;;;19.07;60.00;100147.19;1083202;47;20053;-76
2023/06/25 05:17:46;;;;;;;;;;;;;;;19.13;59.75;100146.38;1083467;54;19946;-76
2023/06/25 05:18:49;;;;;;;;;;;;;;;19.15;59.74;100136.19;1083154;54;20028;-77
2023/06/25 05:19:50;;;;;;;;;;;;;;;19.12;59.34;100147.41;1083503;54;20895;-76
2023/06/25 05:20:53;;;;;;;;;;;;;;;19.04;59.58;100142.16;1083412;54;19950;-77
2023/06/25 05:21:55;;;;;;;;;;;;;;;19.13;59.18;100140.97;1083394;54;19950;-76
2023/06/25 05:22:58;;;;;;;;;;;;;;;19.18;59.09;100149.31;1083343;47;19950;-76
2023/06/25 05:24:00;;;;;;;;;;;;;;;19.24;59.03;100144.16;1083146;54;19975;-75
2023/06/25 05:25:03;;;;;;;;;;;;;;;19.26;58.85;100145.63;1082994;54;19953;-75
2023/06/25 05:26:04;;;;;;;;;;;;;;;19.31;59.05;100140.47;1083450;54;19947;-76
2023/06/25 05:27:08;;;;;;;;;;;;;;;19.32;58.58;100139.41;1083095;54;19951;-76
2023/06/25 05:28:09;;;;;;;;;;;;;;;19.40;58.38;100134.88;1083432;54;20022;-76
2023/06/25 05:29:12;;;;;;;;;;;;;;;19.43;58.39;100140.72;1083294;54;19946;-76
2023/06/25 05:30:15;;;;;;;;;;;;;;;19.50;58.06;100140.75;1083559;54;20840;-79
2023/06/25 05:31:19;;;;;;;;;;;;;;;19.55;58.22;100142.88;1083198;54;20015;-76
2023/06/25 05:32:20;;;;;;;;;;;;;;;19.59;58.05;100147.69;1083184;54;19950;-76
2023/06/25 05:33:23;;;;;;;;;;;;;;;19.59;58.01;100142.25;1083394;47;20061;-76
2023/06/25 05:34:24;;;;;;;;;;;;;;;19.61;57.82;100142.03;1083456;54;20364;-76
2023/06/25 05:35:29;;;;;;;;;;;;;;;19.66;57.78;100139.56;1083218;54;19971;-76
2023/06/25 05:36:30;;;;;;;;;;;;;;;19.71;57.52;100147.94;1083194;54;19947;-77
2023/06/25 05:37:33;;;;;;;;;;;;;;;19.77;57.39;100138.16;1083006;54;19958;-76
2023/06/25 05:38:34;;;;;;;;;;;;;;;19.83;57.13;100141.94;1082966;54;19972;-77
2023/06/25 05:39:37;;;;;;;;;;;;;;;19.88;57.32;100143.03;1083008;54;20169;-76
2023/06/25 05:40:38;;;;;;;;;;;;;;;19.79;57.25;100144.19;1083136;54;19950;-78
2023/06/25 05:41:41;;;;;;;;;;;;;;;19.83;57.18;100142.75;1082949;54;19962;-76
2023/06/25 05:42:42;;;;;;;;;;;;;;;19.86;57.16;100146.97;1083174;54;19947;-77
2023/06/25 05:43:46;;;;;;;;;;;;;;;19.78;57.12;100143.38;1082788;39;20288;-77
2023/06/25 05:44:47;;;;;;;;;;;;;;;19.83;57.02;100144.66;1083522;54;19981;-77
2023/06/25 05:45:52;;;;;;;;;;;;;;;19.71;56.97;100153.34;1083672;47;19958;-77
2023/06/25 05:46:54;;;;;;;;;;;;;;;19.79;56.78;100144.19;1083319;47;20010;-77
2023/06/25 05:47:58;;;;;;;;;;;;;;;19.83;56.78;100140.03;1083799;54;19947;-78
2023/06/25 05:48:59;;;;;;;;;;;;;;;19.90;56.73;100142.81;1083612;54;19946;-77
2023/06/25 05:50:03;;;;;;;;;;;;;;;19.94;56.68;100136.78;1083342;54;19982;-77
2023/06/25 05:51:03;;;;;;;;;;;;;;;20.00;56.70;100136.97;1083297;46;19946;-77
2023/06/25 05:52:07;;;;;;;;;;;;;;;20.04;56.64;100141.78;1083431;39;20532;-77
2023/06/25 05:53:08;;;;;;;;;;;;;;;20.10;56.35;100138.28;1083394;54;19980;-78
2023/06/25 05:54:11;;;;;;;;;;;;;;;20.15;56.02;100140.38;1083384;54;19962;-77
2023/06/25 05:55:12;;;;;;;;;;;;;;;20.20;56.06;100145.19;1083048;46;20100;-77
2023/06/25 05:56:16;;;;;;;;;;;;;;;20.25;55.92;100142.69;1083098;54;19974;-79
2023/06/25 05:57:17;;;;;;;;;;;;;;;20.31;55.88;100143.75;1083575;54;19951;-77
2023/06/25 05:58:20;;;;;;;;;;;;;;;20.35;55.36;100143.13;1083452;47;19950;-77
2023/06/25 05:59:21;;;;;;;;;;;;;;;20.40;55.37;100145.22;1082990;54;19946;-78
2023/06/25 06:00:24;;;;;;;;;;;;;;;20.44;55.12;100140.19;1082937;54;19962;-77
2023/06/25 06:01:27;;;;;;;;;;;;;;;20.45;55.26;100136.44;1083242;54;19951;-76
2023/06/25 06:02:31;;;;;;;;;;;;;;;20.48;54.88;100141.47;1083091;54;20000;-77
2023/06/25 06:03:32;;;;;;;;;;;;;;;20.35;54.48;100136.88;1083128;47;19946;-77
2023/06/25 06:04:35;;;;;;;;;;;;;;;20.32;54.95;100142.69;1082774;54;19962;-77
2023/06/25 06:05:36;;;;;;;;;;;;;;;20.36;54.62;100143.94;1082965;54;19962;-77
2023/06/25 06:06:40;;;;;;;;;;;;;;;20.41;54.95;100136.03;1082692;47;19954;-77
2023/06/25 06:07:40;;;;;;;;;;;;;;;20.47;54.93;100139.78;1083017;54;20061;-76
2023/06/25 06:08:44;;;;;;;;;;;;;;;20.50;54.43;100140.22;1083134;54;20004;-77
2023/06/25 06:09:44;;;;;;;;;;;;;;;20.49;54.47;100145.84;1083187;54;20069;-76
2023/06/25 06:10:48;;;;;;;;;;;;;;;20.55;54.17;100132.25;1083118;54;19946;-77
2023/06/25 06:11:52;;;;;;;;;;;;;;;20.62;54.33;100134.16;1083936;39;20852;-76
2023/06/25 06:12:52;;;;;;;;;;;;;;;20.65;54.17;100142.72;1083000;47;20054;-76
2023/06/25 06:13:56;;;;;;;;;;;;;;;20.69;53.92;100135.81;1083005;54;20522;-76
2023/06/25 06:14:57;;;;;;;;;;;;;;;20.69;53.63;100133.09;1082900;54;19947;-76
2023/06/25 06:16:00;;;;;;;;;;;;;;;20.73;53.88;100133.53;1082506;51;20065;-76
2023/06/25 06:17:06;;;;;;;;;;;;;;;20.78;53.58;100138.38;1082540;54;19957;-78
2023/06/25 06:18:07;;;;;;;;;;;;;;;20.81;53.68;100132.50;1082992;54;19988;-79
2023/06/25 06:19:10;;;;;;;;;;;;;;;20.87;53.32;100134.38;1084044;54;19950;-76
2023/06/25 06:20:11;;;;;;;;;;;;;;;20.91;53.45;100145.66;1083898;47;19951;-79
2023/06/25 06:21:15;;;;;;;;;;;;;;;20.91;53.29;100132.91;1083893;39;20406;-78
2023/06/25 06:22:16;;;;;;;;;;;;;;;20.94;52.95;100139.78;1083498;54;19950;-78
2023/06/25 06:23:19;;;;;;;;;;;;;;;20.86;53.13;100132.72;1083627;54;19970;-77
2023/06/25 06:24:20;;;;;;;;;;;;;;;20.94;52.76;100137.94;1084245;54;19962;-79
2023/06/25 06:25:23;;;;;;;;;;;;;;;21.01;52.90;100141.47;1083716;54;19954;-80
2023/06/25 06:26:24;;;;;;;;;;;;;;;21.07;52.69;100138.94;1083517;47;20487;-79
2023/06/25 06:27:28;;;;;;;;;;;;;;;21.08;52.62;100136.03;1083742;47;20069;-79
2023/06/25 06:28:28;;;;;;;;;;;;;;;21.10;52.06;100128.50;1083906;54;20005;-78
2023/06/25 06:29:32;;;;;;;;;;;;;;;21.13;52.07;100132.66;1083785;47;19950;-77
2023/06/25 06:30:33;;;;;;;;;;;;;;;21.16;52.12;100134.97;1083980;54;20077;-77
2023/06/25 06:31:40;;;;;;;;;;;;;;;21.22;52.21;100125.97;1084220;54;19954;-77
2023/06/25 06:32:43;;;;;;;;;;;;;;;21.26;51.78;100129.09;1085233;47;20090;-78
2023/06/25 06:33:47;;;;;;;;;;;;;;;21.28;51.38;100125.09;1085940;39;20564;-78
2023/06/25 06:34:47;;;;;;;;;;;;;;;21.33;51.59;100127.16;1085292;54;19975;-77
2023/06/25 06:35:51;;;;;;;;;;;;;;;21.38;51.32;100129.25;1084875;47;19950;-78
2023/06/25 06:36:54;;;;;;;;;;;;;;;21.40;51.09;100133.41;1084978;54;19947;-78
2023/06/25 06:37:55;;;;;;;;;;;;;;;21.43;51.28;100137.63;1084949;54;19946;-78
2023/06/25 06:38:58;;;;;;;;;;;;;;;21.46;51.32;100138.00;1084639;47;19996;-76
2023/06/25 06:39:59;;;;;;;;;;;;;;;21.47;50.77;100136.97;1083682;47;19947;-77
2023/06/25 06:41:02;;;;;;;;;;;;;;;21.50;50.70;100141.13;1083616;54;19953;-78
2023/06/25 06:42:03;;;;;;;;;;;;;;;21.52;50.80;100139.03;1083817;54;19946;-78
2023/06/25 06:43:07;;;;;;;;;;;;;;;21.58;50.69;100140.94;1084029;39;20432;-79
2023/06/25 06:44:12;;;;;;;;;;;;;;;21.51;50.35;100137.38;1083425;47;20589;-78
2023/06/25 06:45:15;;;;;;;;;;;;;;;21.60;50.83;100136.13;1083349;47;19947;-78
2023/06/25 06:46:16;;;;;;;;;;;;;;;21.69;50.40;100135.88;1084466;54;20010;-76
2023/06/25 06:47:19;;;;;;;;;;;;;;;21.72;50.38;100130.00;1084700;47;19951;-77
2023/06/25 06:48:22;;;;;;;;;;;;;;;21.78;49.91;100131.84;1085001;46;19993;-77
2023/06/25 06:49:26;;;;;;;;;;;;;;;21.86;49.99;100137.03;1084482;54;19955;-79
2023/06/25 06:50:27;;;;;;;;;;;;;;;21.94;49.66;100136.78;1084314;54;19980;-79
2023/06/25 06:51:30;;;;;;;;;;;;;;;22.00;49.41;100131.53;1084448;54;19950;-78
2023/06/25 06:52:31;;;;;;;;;;;;;;;22.06;49.25;100133.38;1084286;47;20110;-79
2023/06/25 06:53:34;;;;;;;;;;;;;;;22.14;49.36;100130.38;1084487;47;19947;-80
2023/06/25 06:54:35;;;;;;;;;;;;;;;22.25;49.05;100132.41;1084539;47;19993;-81
2023/06/25 06:55:39;;;;;;;;;;;;;;;22.36;48.87;100128.13;1084881;47;19954;-78
2023/06/25 06:56:40;;;;;;;;;;;;;;;22.44;48.76;100136.06;1084679;47;19973;-77
2023/06/25 06:57:43;;;;;;;;;;;;;;;22.55;48.44;100128.22;1084374;46;19950;-78
2023/06/25 06:58:44;;;;;;;;;;;;;;;22.65;47.88;100125.03;1086152;39;20422;-78
2023/06/25 06:59:48;;;;;;;;;;;;;;;22.69;48.10;100126.22;1084635;54;19978;-79
2023/06/25 07:00:49;;;;;;;;;;;;;;;22.70;47.90;100122.44;1084843;47;19946;-79
2023/06/25 07:01:55;;;;;;;;;;;;;;;22.80;47.75;100132.84;1084836;47;19946;-80
2023/06/25 07:02:59;;;;;;;;;;;;;;;22.92;47.10;100133.75;1084926;47;19946;-78
2023/06/25 07:04:02;;;;;;;;;;;;;;;22.95;46.88;100130.59;1085038;54;20096;-81
2023/06/25 07:05:06;;;;;;;;;;;;;;;23.03;46.82;100124.84;1085224;47;19978;-79
2023/06/25 07:06:08;;;;;;;;;;;;;;;23.16;46.78;100134.78;1085721;47;19947;-82
2023/06/25 07:07:11;;;;;;;;;;;;;;;23.21;46.58;100137.72;1085450;54;19942;-81
2023/06/25 07:08:13;;;;;;;;;;;;;;;23.09;45.81;100134.03;1085747;54;19950;-82
2023/06/25 07:09:16;;;;;;;;;;;;;;;23.01;45.97;100135.16;1085699;47;19946;-79
2023/06/25 07:10:17;;;;;;;;;;;;;;;23.01;46.23;100129.69;1085668;47;19938;-78
2023/06/25 07:11:21;;;;;;;;;;;;;;;23.09;45.90;100133.22;1085697;54;19974;-83
2023/06/25 07:12:22;;;;;;;;;;;;;;;23.21;45.59;100126.81;1084706;54;19958;-80
2023/06/25 07:13:26;;;;;;;;;;;;;;;23.35;45.46;100132.94;1085304;47;19957;-79
2023/06/25 07:14:27;;;;;;;;;;;;;;;23.43;45.11;100128.25;1085047;47;19981;-81
2023/06/25 07:15:31;;;;;;;;;;;;;;;23.51;44.88;100126.06;1089576;39;20849;-79
2023/06/25 07:16:34;;;;;;;;;;;;;;;23.64;45.15;100129.66;1085378;54;20057;-81
2023/06/25 07:17:37;;;;;;;;;;;;;;;23.55;44.72;100128.31;1084711;47;19957;-82
2023/06/25 07:18:38;;;;;;;;;;;;;;;23.61;44.68;100124.69;1085571;54;19946;-80
2023/06/25 07:19:44;;;;;;;;;;;;;;;23.75;44.32;100126.16;1086021;47;19953;-80
2023/06/25 07:20:45;;;;;;;;;;;;;;;23.83;44.32;100123.09;1085044;54;19950;-81
2023/06/25 07:21:49;;;;;;;;;;;;;;;23.94;43.98;100128.84;1085145;54;19950;-81
2023/06/25 07:22:49;;;;;;;;;;;;;;;24.00;44.39;100127.94;1085291;47;19973;-80
2023/06/25 07:23:53;;;;;;;;;;;;;;;24.11;44.24;100124.41;1084952;47;21355;-79
2023/06/25 07:24:54;;;;;;;;;;;;;;;24.18;43.50;100115.31;1085391;54;20038;-80
2023/06/25 07:25:57;;;;;;;;;;;;;;;24.14;44.08;100123.97;1085864;46;19977;-77
2023/06/25 07:27:00;;;;;;;;;;;;;;;24.21;43.88;100118.41;1085925;47;19945;-82
2023/06/25 07:29:07;;;;;;;;;;;;;;;24.47;43.71;100121.78;1070321;54;20357;31
2023/06/25 07:31:20;;;;;;;;;;;;;;;24.65;42.68;100120.88;1071021;54;21215;31
2023/06/25 07:33:40;;;;;;;;;;;;;;;24.67;42.94;100126.91;1070774;54;19947;31
2023/06/25 07:35:50;;;;;;;;;;;;;;;24.84;42.34;100112.59;1070348;54;19942;31
2023/06/25 07:36:55;;;;;;;;;;;;;;;24.87;41.78;100125.75;1070900;47;20761;31
2023/06/25 07:39:04;;;;;;;;;;;;;;;25.04;41.63;100121.22;1070854;54;20358;31
2023/06/25 07:40:07;;;;;;;;;;;;;;;25.17;41.35;100116.59;1070764;47;20913;31
2023/06/25 07:42:14;;;;;;;;;;;;;;;25.30;41.31;100112.75;1073927;54;20162;31
2023/06/25 07:43:18;;;;;;;;;;;;;;;25.36;41.41;100112.63;1070711;47;20160;31
2023/06/25 07:44:24;;;;;;;;;;;;;;;25.38;40.49;100117.84;1088478;39;20336;31
2023/06/25 07:46:40;;;;;;;;;;;;;;;25.61;40.94;100106.03;1084696;54;21125;31
2023/06/25 07:47:42;;;;;;;;;;;;;;;25.61;39.95;100108.75;1070804;47;20820;31
2023/06/25 07:48:47;;;;;;;;;;;;;;;25.74;40.30;100106.81;1077557;47;20800;31
2023/06/25 07:49:49;;;;;;;;;;;;;;;25.83;40.44;100108.94;1070599;54;19997;31
2023/06/25 07:52:03;;;;;;;;;;;;;;;25.88;39.78;100096.41;1075410;39;20815;-86
2023/06/25 07:53:03;;;;;;;;;;;;;;;25.81;39.32;100102.88;1087263;47;19939;-85
2023/06/25 07:55:09;;;;;;;;;;;;;;;26.07;38.97;100094.31;1088786;54;19926;-89
2023/06/25 07:58:33;;;;;;;;;;;;;;;25.88;38.54;100096.41;1088531;54;19942;-85
2023/06/25 07:59:34;;;;;;;;;;;;;;;26.04;38.90;100094.78;1088885;54;19927;-86
2023/06/25 08:00:38;;;;;;;;;;;;;;;26.19;38.26;100097.81;1088871;54;19935;-85
2023/06/25 08:02:47;;;;;;;;;;;;;;;26.38;38.07;100101.16;1070157;54;19938;31
2023/06/25 08:05:07;;;;;;;;;;;;;;;26.64;37.60;100098.81;1073753;54;20853;31
2023/06/25 08:06:11;;;;;;;;;;;;;;;26.38;37.38;100100.31;1070721;54;19930;31
2023/06/25 08:08:21;;;;;;;;;;;;;;;26.24;37.47;100095.19;1070431;54;19973;31
2023/06/25 08:09:26;;;;;;;;;;;;;;;26.44;37.28;100089.19;1070796;47;19981;31
2023/06/25 08:11:33;;;;;;;;;;;;;;;26.67;36.40;100092.84;1070417;54;19942;31
2023/06/25 08:12:40;;;;;;;;;;;;;;;26.94;36.03;100097.66;1070851;47;19946;31
2023/06/25 08:13:50;;;;;;;;;;;;;;;26.66;36.25;100095.81;1070723;47;19930;31
2023/06/25 08:14:58;;;;;;;;;;;;;;;27.00;36.47;100090.34;1074503;54;19930;-87
2023/06/25 08:19:25;;;;;;;;;;;;;;;27.60;35.19;100082.31;1088661;54;20295;-82
2023/06/25 08:21:30;;;;;;;;;;;;;;;27.53;34.78;100077.84;1088372;54;19926;-84
2023/06/25 08:23:38;;;;;;;;;;;;;;;27.76;34.52;100073.16;1088889;47;19926;-84
2023/06/25 08:25:43;;;;;;;;;;;;;;;28.07;34.09;100069.88;1087811;54;20513;-83
2023/06/25 08:26:53;;;;;;;;;;;;;;;28.14;34.32;100065.88;1085390;47;19939;31
2023/06/25 08:29:08;;;;;;;;;;;;;;;28.16;33.65;100066.41;1088650;54;19942;-86
2023/06/25 08:31:27;;;;;;;;;;;;;;;27.85;33.04;100062.53;1088231;54;19943;-85
2023/06/25 08:33:47;;;;;;;;;;;;;;;28.27;33.03;100064.59;1083318;54;19934;31
2023/06/25 08:35:00;;;;;;;;;;;;;;;28.52;32.67;100065.06;1087473;47;19963;-84
2023/06/25 08:39:47;;;;;;;;;;;;;;;28.77;31.79;100057.00;1071009;46;19930;31
2023/06/25 08:41:00;;;;;;;;;;;;;;;28.82;31.70;100055.34;1074293;46;21156;31
2023/06/25 08:43:12;;;;;;;;;;;;;;;28.85;32.42;100060.31;1089172;54;19942;-85
2023/06/25 08:44:17;;;;;;;;;;;;;;;28.81;32.06;100051.78;1070997;54;19977;31
2023/06/25 08:49:05;;;;;;;;;;;;;;;29.00;31.11;100046.63;1070580;47;20807;31
2023/06/25 08:51:15;;;;;;;;;;;;;;;28.79;30.72;100049.31;1079780;54;21180;-86
2023/06/25 08:53:39;;;;;;;;;;;;;;;28.25;29.91;100050.28;1088814;54;19927;-83
2023/06/25 08:54:52;;;;;;;;;;;;;;;28.14;30.50;100043.88;1087686;47;19938;-82
2023/06/25 08:55:57;;;;;;;;;;;;;;;28.07;30.60;100050.66;1087497;47;19954;-85
2023/06/25 08:58:07;;;;;;;;;;;;;;;28.32;30.41;100045.38;1087959;54;19925;-85
2023/06/25 09:00:22;;;;;;;;;;;;;;;28.62;30.12;100049.44;1070725;54;19981;31
2023/06/25 09:07:37;;;;;;;;;;;;;;;29.83;28.78;100033.16;1087502;46;20006;-86
2023/06/25 09:09:42;;;;;;;;;;;;;;;29.60;28.57;100034.50;1087896;54;19946;-85
2023/06/25 09:17:28;;;;;;;;;;;;;;;29.23;27.19;100037.13;1080104;54;19931;31
2023/06/25 09:18:30;;;;;;;;;;;;;;;29.68;26.74;100031.22;1077330;47;20385;31
2023/06/25 09:20:48;;;;;;;;;;;;;;;29.88;26.23;100034.00;1074297;54;19930;31
2023/06/25 09:23:04;;;;;;;;;;;;;;;30.19;25.62;100035.97;1087333;47;20872;-85
2023/06/25 09:24:12;;;;;;;;;;;;;;;30.13;25.56;100026.88;1087499;47;19923;-84
2023/06/25 09:26:17;;;;;;;;;;;;;;;30.28;25.07;100022.44;1088138;54;20682;-83
2023/06/25 09:29:40;;;;;;;;;;;;;;;30.53;25.29;100024.34;1087847;54;19934;-83
2023/06/25 09:30:40;;;;;;;;;;;;;;;30.58;24.68;100015.25;1086917;47;20773;-85
2023/06/25 09:31:52;;;;;;;;;;;;;;;30.77;24.94;100019.06;1082680;54;19953;-85
2023/06/25 09:32:56;;;;;;;;;;;;;;;30.33;25.21;100014.16;1078466;54;20819;-84
2023/06/25 09:35:09;;;;;;;;;;;;;;;30.46;25.41;100013.59;1087470;54;19942;-85
2023/06/25 09:36:09;;;;;;;;;;;;;;;30.16;25.44;100012.53;1087887;47;19979;-85
2023/06/25 09:37:14;;;;;;;;;;;;;;;29.71;25.94;100011.38;1087345;47;20710;-83
2023/06/25 09:38:15;;;;;;;;;;;;;;;29.65;26.09;100017.97;1087977;46;19940;-83
2023/06/25 09:40:23;;;;;;;;;;;;;;;29.51;26.40;100032.28;1086844;39;20880;31
2023/06/25 09:41:25;;;;;;;;;;;;;;;29.72;26.64;100011.13;1087905;54;19994;-85
2023/06/25 09:43:34;;;;;;;;;;;;;;;29.95;26.17;100013.63;1089981;39;20725;-84
2023/06/25 09:44:39;;;;;;;;;;;;;;;30.09;26.04;100002.88;1087776;46;19962;-85
2023/06/25 09:46:45;;;;;;;;;;;;;;;30.39;25.87;100009.47;1087979;54;19960;-84
2023/06/25 09:49:04;;;;;;;;;;;;;;;30.60;25.67;99996.50;1082925;54;19934;-86
2023/06/25 09:50:07;;;;;;;;;;;;;;;30.71;25.18;100002.78;1088242;54;19965;-86
2023/06/25 09:53:26;;;;;;;;;;;;;;;30.70;25.17;100001.16;1086873;54;19927;31
2023/06/25 09:54:29;;;;;;;;;;;;;;;30.82;24.79;99998.91;1088071;39;21298;31
2023/06/25 09:56:45;;;;;;;;;;;;;;;31.16;24.53;100008.44;1088177;54;19942;-86
2023/06/25 09:57:47;;;;;;;;;;;;;;;30.95;24.79;99995.53;1088191;46;19954;-85
2023/06/25 10:01:08;;;;;;;;;;;;;;;31.33;24.36;100002.56;1083372;54;19931;31
2023/06/25 10:02:13;;;;;;;;;;;;;;;31.29;23.78;99994.03;1080108;46;19923;-84
2023/06/25 10:06:44;;;;;;;;;;;;;;;30.64;24.69;99987.38;1081199;39;19991;-86
2023/06/25 10:07:46;;;;;;;;;;;;;;;30.75;25.06;99990.09;1083167;31;20954;-85
2023/06/25 10:09:52;;;;;;;;;;;;;;;31.09;24.58;99981.13;1087160;54;20017;-86
2023/06/25 10:11:00;;;;;;;;;;;;;;;31.33;24.41;99980.47;1085716;47;20788;-83
2023/06/25 10:13:11;;;;;;;;;;;;;;;31.01;24.70;99979.78;1088718;54;19927;-85
2023/06/25 10:15:17;;;;;;;;;;;;;;;30.93;24.40;99975.69;1087898;46;19954;-86
2023/06/25 10:18:44;;;;;;;;;;;;;;;31.66;23.84;99965.06;1088678;54;19923;-85
2023/06/25 10:20:56;;;;;;;;;;;;;;;31.02;24.24;99969.56;1077683;54;20833;31
2023/06/25 10:23:15;;;;;;;;;;;;;;;31.34;24.13;99969.13;1088709;54;19926;-87
2023/06/25 10:25:29;;;;;;;;;;;;;;;31.65;24.04;99968.09;1088678;54;19938;-87
2023/06/25 10:26:36;;;;;;;;;;;;;;;31.67;23.81;99963.97;1070556;54;20318;31
2023/06/25 10:30:13;;;;;;;;;;;;;;;31.77;23.78;99953.97;1088666;54;19938;-84
2023/06/25 10:32:24;;;;;;;;;;;;;;;31.10;24.28;99953.28;1079625;54;19927;-87
2023/06/25 10:33:29;;;;;;;;;;;;;;;30.86;24.60;99955.84;1084187;46;19982;31
2023/06/25 10:35:47;;;;;;;;;;;;;;;30.73;24.80;99957.28;1083692;39;21359;-85
2023/06/25 10:38:12;;;;;;;;;;;;;;;30.63;24.69;99949.88;1084979;54;19927;-85
2023/06/25 10:39:22;;;;;;;;;;;;;;;31.02;24.59;99958.53;1082652;47;19947;-86
2023/06/25 10:41:37;;;;;;;;;;;;;;;31.22;24.37;99952.94;1074383;54;20969;31
2023/06/25 10:45:10;;;;;;;;;;;;;;;31.70;23.53;99946.00;1074858;54;19946;31
2023/06/25 10:46:11;;;;;;;;;;;;;;;31.93;23.40;99941.66;1088790;39;20264;-86
2023/06/25 10:49:33;;;;;;;;;;;;;;;32.07;23.36;99946.50;1077066;54;20395;31
2023/06/25 10:51:47;;;;;;;;;;;;;;;32.42;22.80;99939.78;1089068;54;19927;-88
2023/06/25 10:52:52;;;;;;;;;;;;;;;32.62;22.51;99935.97;1070362;47;21507;31
2023/06/25 10:53:57;;;;;;;;;;;;;;;32.77;22.80;99939.66;1080732;39;21428;31
2023/06/25 10:56:09;;;;;;;;;;;;;;;32.61;22.21;99936.25;1088533;54;19942;-87
2023/06/25 10:57:11;;;;;;;;;;;;;;;32.05;22.27;99944.03;1084184;54;20434;-87
2023/06/25 10:59:36;;;;;;;;;;;;;;;32.28;22.73;99947.16;1070408;54;20861;31
2023/06/25 11:00:41;;;;;;;;;;;;;;;32.14;22.26;99939.50;1070832;54;20419;-86
2023/06/25 11:05:01;;;;;;;;;;;;;;;32.50;22.08;99927.25;1067706;54;20843;31
2023/06/25 11:07:16;;;;;;;;;;;;;;;32.51;22.32;99915.91;1072044;47;20192;31
2023/06/25 11:09:37;;;;;;;;;;;;;;;32.78;22.15;99933.84;1067595;54;19947;-88
2023/06/25 11:11:53;;;;;;;;;;;;;;;32.83;21.70;99913.59;1087231;46;19923;31
2023/06/25 11:14:11;;;;;;;;;;;;;;;33.19;21.84;99907.56;1067739;47;21075;31
2023/06/25 11:16:23;;;;;;;;;;;;;;;32.38;22.06;99921.31;1072946;39;21349;31
2023/06/25 11:17:25;;;;;;;;;;;;;;;32.54;21.92;99908.97;1068406;54;19969;31
2023/06/25 11:18:32;;;;;;;;;;;;;;;32.24;22.59;99916.50;1069185;39;20350;31
2023/06/25 11:19:33;;;;;;;;;;;;;;;32.19;22.51;99908.22;1087894;47;19963;-88
2023/06/25 11:22:48;;;;;;;;;;;;;;;32.11;22.53;99911.63;1080948;54;19942;31
2023/06/25 11:26:13;;;;;;;;;;;;;;;31.59;22.84;99914.84;1087996;54;19978;-86
2023/06/25 11:27:17;;;;;;;;;;;;;;;30.90;23.40;99923.00;1087186;47;19986;-85
2023/06/25 11:29:36;;;;;;;;;;;;;;;30.59;23.46;99912.94;1083719;39;20828;31
2023/06/25 11:30:42;;;;;;;;;;;;;;;30.59;23.45;99906.59;1083221;47;21047;31
2023/06/25 11:31:48;;;;;;;;;;;;;;;30.48;23.63;99903.84;1067608;47;20815;31
2023/06/25 11:32:55;;;;;;;;;;;;;;;30.52;23.88;99901.38;1068356;47;19996;-86
2023/06/25 11:35:17;;;;;;;;;;;;;;;30.58;23.83;99904.94;1076968;39;20132;-86
2023/06/25 11:36:22;;;;;;;;;;;;;;;30.85;23.44;99906.47;1068269;47;19973;31
2023/06/25 11:39:43;;;;;;;;;;;;;;;30.86;23.29;99894.31;1088656;54;19947;-86
2023/06/25 11:42:02;;;;;;;;;;;;;;;30.57;23.70;99898.59;1087996;54;19950;-84
2023/06/25 11:44:11;;;;;;;;;;;;;;;30.72;23.61;99896.88;1068175;47;19951;31
2023/06/25 11:45:19;;;;;;;;;;;;;;;30.51;23.92;99888.69;1068570;54;20826;31
2023/06/25 11:46:22;;;;;;;;;;;;;;;30.33;24.38;99892.88;1082633;47;20027;31
2023/06/25 11:48:35;;;;;;;;;;;;;;;30.24;24.52;99889.03;1083581;54;19930;31
2023/06/25 11:49:40;;;;;;;;;;;;;;;30.43;24.17;99876.28;1068033;47;21021;31
2023/06/25 11:51:53;;;;;;;;;;;;;;;30.63;24.11;99878.16;1076206;54;20031;-85
2023/06/25 11:54:20;;;;;;;;;;;;;;;30.33;24.46;99881.84;1072065;54;19947;31
2023/06/25 11:57:41;;;;;;;;;;;;;;;30.77;23.55;99875.59;1067575;54;20001;31
2023/06/25 12:01:05;;;;;;;;;;;;;;;29.90;24.33;99873.94;1072320;54;20321;-86
2023/06/25 12:02:08;;;;;;;;;;;;;;;30.19;23.74;99876.91;1068092;46;19952;31
2023/06/25 12:03:13;;;;;;;;;;;;;;;30.32;24.03;99875.50;1076071;46;20041;31
2023/06/25 12:06:44;;;;;;;;;;;;;;;30.39;23.63;99874.38;1086310;46;19939;31
2023/06/25 12:10:06;;;;;;;;;;;;;;;30.43;23.90;99869.94;1071859;54;20437;31
2023/06/25 12:12:18;;;;;;;;;;;;;;;30.48;24.02;99873.50;1067716;39;20114;31
2023/06/25 12:14:42;;;;;;;;;;;;;;;30.58;23.42;99861.66;1074728;54;19954;31
2023/06/25 12:15:44;;;;;;;;;;;;;;;30.54;23.71;99860.56;1068168;46;20072;31
2023/06/25 12:17:59;;;;;;;;;;;;;;;30.30;23.47;99854.84;1088758;54;19938;-84
2023/06/25 12:20:14;;;;;;;;;;;;;;;30.33;23.85;99860.59;1076937;54;19946;-87
2023/06/25 12:23:43;;;;;;;;;;;;;;;30.43;23.09;99858.91;1088554;54;19933;-85
2023/06/25 12:25:49;;;;;;;;;;;;;;;30.68;23.21;99865.47;1088409;54;19934;-88
2023/06/25 12:26:54;;;;;;;;;;;;;;;30.71;23.16;99854.69;1068171;46;20859;31
2023/06/25 12:29:07;;;;;;;;;;;;;;;30.76;23.10;99853.84;1067573;54;20796;31
2023/06/25 12:30:13;;;;;;;;;;;;;;;30.83;22.75;99848.81;1067869;46;21541;31
2023/06/25 12:31:20;;;;;;;;;;;;;;;30.91;22.62;99847.41;1068686;39;20358;31
2023/06/25 12:32:25;;;;;;;;;;;;;;;30.88;22.62;99843.28;1067486;54;19938;31
2023/06/25 12:33:30;;;;;;;;;;;;;;;31.04;22.60;99841.22;1068351;31;21286;31
2023/06/25 12:34:37;;;;;;;;;;;;;;;30.85;23.06;99854.88;1067665;54;19950;31